Time;durP1;ratioP1;P1;durP2;ratioP2;P2;SDS_P1;SDS_P2;PMS_P1;PMS_P2;Temp;Humidity;BMP_temperature;BMP_pressure;BME280_temperature;BME280_humidity;BME280_pressure;Samples;Min_cycle;Max_cycle;Signal;HPM_P1;HPM_P2
2023/08/15 00:00:41;;;;;;;;;;;23.40;68.20;;;;;;1566703;74;716;-57
2023/08/15 00:02:43;;;;;;;;;;;23.40;68.10;;;;;;1564416;74;1628;-58
2023/08/15 00:04:45;;;;;;;;;;;23.30;68.00;;;;;;1561073;74;803;-58
2023/08/15 00:06:47;;;;;;;;;;;23.40;68.00;;;;;;1568736;75;703;-58
2023/08/15 00:08:53;;;;;;;;;;;23.30;68.10;;;;;;1569913;74;1936;-57
2023/08/15 00:10:52;;;;;;;;;;;23.30;68.10;;;;;;1561940;74;1712;-59
2023/08/15 00:12:54;;;;;;;;;;;23.40;68.10;;;;;;1562282;75;686;-57
2023/08/15 00:14:56;;;;;;;;;;;23.40;68.00;;;;;;1562812;74;1535;-57
2023/08/15 00:16:58;;;;;;;;;;;23.40;67.90;;;;;;1565114;74;1031;-59
2023/08/15 00:19:02;;;;;;;;;;;23.30;68.00;;;;;;1561744;75;1044;-57
2023/08/15 00:21:04;;;;;;;;;;;23.40;68.00;;;;;;1560902;74;795;-57
2023/08/15 00:23:06;;;;;;;;;;;23.40;68.10;;;;;;1566216;74;757;-57
2023/08/15 00:25:08;;;;;;;;;;;23.30;68.20;;;;;;1561334;74;738;-59
2023/08/15 00:27:10;;;;;;;;;;;23.40;68.10;;;;;;1568235;75;773;-59
2023/08/15 00:29:12;;;;;;;;;;;23.40;68.10;;;;;;1563920;74;1950;-57
2023/08/15 00:31:14;;;;;;;;;;;23.40;68.10;;;;;;1553444;75;753;-57
2023/08/15 00:33:15;;;;;;;;;;;23.40;68.10;;;;;;1560497;75;764;-58
2023/08/15 00:35:17;;;;;;;;;;;23.30;68.00;;;;;;1571267;75;730;-58
2023/08/15 00:37:19;;;;;;;;;;;23.40;68.00;;;;;;1571222;74;775;-57
2023/08/15 00:39:21;;;;;;;;;;;23.40;68.00;;;;;;1569864;74;1117;-58
2023/08/15 00:41:23;;;;;;;;;;;23.40;68.00;;;;;;1563198;74;737;-57
2023/08/15 00:43:25;;;;;;;;;;;23.40;67.90;;;;;;1560902;74;1557;-58
2023/08/15 00:45:27;;;;;;;;;;;23.40;67.90;;;;;;1558370;74;795;-58
2023/08/15 00:47:29;;;;;;;;;;;23.30;67.90;;;;;;1561712;75;690;-57
2023/08/15 00:49:32;;;;;;;;;;;23.40;67.90;;;;;;1571112;75;1946;-57
2023/08/15 00:51:34;;;;;;;;;;;23.40;67.70;;;;;;1569513;74;712;-58
2023/08/15 00:53:35;;;;;;;;;;;23.30;67.80;;;;;;1563818;75;739;-57
2023/08/15 00:55:37;;;;;;;;;;;23.40;67.80;;;;;;1569891;74;753;-57
2023/08/15 00:57:39;;;;;;;;;;;23.40;67.80;;;;;;1559544;75;1344;-57
2023/08/15 00:59:43;;;;;;;;;;;23.40;67.80;;;;;;1560709;74;1129;-58
2023/08/15 01:01:45;;;;;;;;;;;23.40;67.70;;;;;;1557343;74;719;-57
2023/08/15 01:03:47;;;;;;;;;;;23.30;67.90;;;;;;1568020;74;744;-58
2023/08/15 01:05:48;;;;;;;;;;;23.30;67.80;;;;;;1571424;74;814;-57
2023/08/15 01:07:50;;;;;;;;;;;23.40;67.70;;;;;;1552485;75;747;-56
2023/08/15 01:09:52;;;;;;;;;;;23.30;67.70;;;;;;1560510;75;1949;-57
2023/08/15 01:12:14;;;;;;;;;;;23.40;67.80;;;;;;1555536;74;1521;-57
2023/08/15 01:14:17;;;;;;;;;;;23.40;67.70;;;;;;1571025;74;1509;-57
2023/08/15 01:16:23;;;;;;;;;;;23.30;67.60;;;;;;1568440;74;704;-56
2023/08/15 01:18:26;;;;;;;;;;;23.40;67.60;;;;;;1562782;74;739;-58
2023/08/15 01:20:28;;;;;;;;;;;23.40;67.60;;;;;;1566540;75;1965;-57
2023/08/15 01:22:30;;;;;;;;;;;23.30;67.60;;;;;;1564340;75;676;-58
2023/08/15 01:24:32;;;;;;;;;;;23.30;67.70;;;;;;1562962;74;657;-56
2023/08/15 01:26:35;;;;;;;;;;;23.30;67.60;;;;;;1568227;74;1205;-58
2023/08/15 01:28:38;;;;;;;;;;;23.40;67.60;;;;;;1570635;74;1149;-57
2023/08/15 01:30:42;;;;;;;;;;;23.30;67.50;;;;;;1567582;74;1930;-59
2023/08/15 01:32:45;;;;;;;;;;;23.30;67.50;;;;;;1560960;74;1841;-56
2023/08/15 01:34:49;;;;;;;;;;;23.30;67.50;;;;;;1563009;74;1936;-58
2023/08/15 01:36:52;;;;;;;;;;;23.40;67.50;;;;;;1570252;74;726;-59
2023/08/15 01:39:01;;;;;;;;;;;23.40;67.40;;;;;;1568470;74;1133;-58
2023/08/15 01:41:03;;;;;;;;;;;23.30;67.50;;;;;;1562185;74;1367;-57
2023/08/15 01:43:05;;;;;;;;;;;23.40;67.60;;;;;;1564376;74;729;-56
2023/08/15 01:45:07;;;;;;;;;;;23.40;67.70;;;;;;1569672;74;726;-59
2023/08/15 01:47:09;;;;;;;;;;;23.30;67.80;;;;;;1567634;75;559;-57
2023/08/15 01:49:11;;;;;;;;;;;23.30;67.80;;;;;;1569599;74;1168;-59
2023/08/15 01:51:13;;;;;;;;;;;23.30;67.90;;;;;;1566518;75;1947;-58
2023/08/15 01:53:14;;;;;;;;;;;23.40;67.90;;;;;;1566032;75;713;-58
2023/08/15 01:55:16;;;;;;;;;;;23.30;67.90;;;;;;1564670;74;1731;-58
2023/08/15 01:57:18;;;;;;;;;;;23.40;67.90;;;;;;1569262;74;767;-59
2023/08/15 01:59:20;;;;;;;;;;;23.30;67.80;;;;;;1572433;74;1135;-57
2023/08/15 02:01:22;;;;;;;;;;;23.30;67.80;;;;;;1571166;74;781;-57
2023/08/15 02:03:25;;;;;;;;;;;23.30;67.70;;;;;;1570646;74;669;-58
2023/08/15 02:05:27;;;;;;;;;;;23.40;67.60;;;;;;1570760;74;807;-57
2023/08/15 02:07:29;;;;;;;;;;;23.30;67.70;;;;;;1567757;75;1564;-58
2023/08/15 02:09:31;;;;;;;;;;;23.30;67.60;;;;;;1565471;74;1122;-57
2023/08/15 02:11:33;;;;;;;;;;;23.30;67.60;;;;;;1565653;75;693;-57
2023/08/15 02:13:34;;;;;;;;;;;23.30;67.60;;;;;;1560264;75;674;-59
2023/08/15 02:15:37;;;;;;;;;;;23.30;67.60;;;;;;1569385;74;810;-58
2023/08/15 02:17:39;;;;;;;;;;;23.30;67.60;;;;;;1569125;74;819;-56
2023/08/15 02:19:41;;;;;;;;;;;23.30;67.60;;;;;;1566173;74;1191;-56
2023/08/15 02:21:43;;;;;;;;;;;23.40;67.60;;;;;;1559804;75;1433;-58
2023/08/15 02:23:45;;;;;;;;;;;23.30;67.60;;;;;;1565607;74;728;-57
2023/08/15 02:25:47;;;;;;;;;;;23.30;67.50;;;;;;1567497;74;789;-57
2023/08/15 02:27:49;;;;;;;;;;;23.30;67.50;;;;;;1567120;74;666;-58
2023/08/15 02:29:51;;;;;;;;;;;23.30;67.60;;;;;;1570099;75;1954;-57
2023/08/15 02:31:52;;;;;;;;;;;23.40;67.50;;;;;;1565765;74;675;-58
2023/08/15 02:33:55;;;;;;;;;;;23.30;67.50;;;;;;1570381;74;655;-58
2023/08/15 02:35:57;;;;;;;;;;;23.30;67.50;;;;;;1563526;75;1581;-59
2023/08/15 02:37:59;;;;;;;;;;;23.40;67.50;;;;;;1564794;74;782;-59
2023/08/15 02:40:01;;;;;;;;;;;23.30;67.50;;;;;;1563917;74;1133;-57
2023/08/15 02:42:02;;;;;;;;;;;22.90;67.30;;;;;;1557326;75;632;-58
2023/08/15 02:44:05;;;;;;;;;;;23.30;67.40;;;;;;1564389;74;769;-57
2023/08/15 02:46:07;;;;;;;;;;;23.30;67.50;;;;;;1563413;74;767;-58
2023/08/15 02:48:09;;;;;;;;;;;23.30;67.50;;;;;;1568992;75;785;-57
2023/08/15 02:50:11;;;;;;;;;;;23.30;67.50;;;;;;1567110;74;1950;-57
2023/08/15 02:52:13;;;;;;;;;;;23.30;67.40;;;;;;1569018;74;725;-57
2023/08/15 02:54:15;;;;;;;;;;;23.40;67.40;;;;;;1567265;75;690;-59
2023/08/15 02:56:17;;;;;;;;;;;23.30;67.40;;;;;;1564299;75;829;-58
2023/08/15 02:58:19;;;;;;;;;;;23.30;67.40;;;;;;1565705;75;876;-59
2023/08/15 03:00:21;;;;;;;;;;;23.30;67.40;;;;;;1570395;75;1088;-59
2023/08/15 03:02:23;;;;;;;;;;;23.30;67.30;;;;;;1566423;74;682;-58
2023/08/15 03:04:25;;;;;;;;;;;23.30;67.30;;;;;;1568883;75;1444;-59
2023/08/15 03:06:27;;;;;;;;;;;23.30;67.30;;;;;;1567804;74;763;-57
2023/08/15 03:08:29;;;;;;;;;;;23.30;67.30;;;;;;1570352;74;742;-57
2023/08/15 03:10:36;;;;;;;;;;;23.30;67.30;;;;;;1563503;74;1947;-58
2023/08/15 03:12:34;;;;;;;;;;;23.30;67.20;;;;;;1557658;74;1660;-57
2023/08/15 03:14:36;;;;;;;;;;;23.30;67.30;;;;;;1557764;75;785;-57
2023/08/15 03:16:38;;;;;;;;;;;23.30;67.20;;;;;;1567586;74;791;-56
2023/08/15 03:18:40;;;;;;;;;;;23.30;67.20;;;;;;1568004;74;1470;-59
2023/08/15 03:20:42;;;;;;;;;;;23.30;67.10;;;;;;1567042;74;752;-58
2023/08/15 03:22:44;;;;;;;;;;;23.30;67.20;;;;;;1565763;74;742;-56
2023/08/15 03:24:46;;;;;;;;;;;23.30;67.10;;;;;;1566112;75;738;-58
2023/08/15 03:26:47;;;;;;;;;;;23.30;67.10;;;;;;1567825;74;727;-56
2023/08/15 03:28:52;;;;;;;;;;;23.30;67.10;;;;;;1570765;75;1136;-58
2023/08/15 03:30:53;;;;;;;;;;;23.30;67.10;;;;;;1564213;75;1945;-57
2023/08/15 03:32:55;;;;;;;;;;;23.30;67.00;;;;;;1568395;74;1528;-57
2023/08/15 03:34:57;;;;;;;;;;;23.30;67.00;;;;;;1566084;74;737;-57
2023/08/15 03:36:59;;;;;;;;;;;23.30;67.00;;;;;;1571241;74;738;-57
2023/08/15 03:39:00;;;;;;;;;;;23.30;66.90;;;;;;1570537;74;1117;-57
2023/08/15 03:41:03;;;;;;;;;;;23.30;67.00;;;;;;1562657;74;663;-57
2023/08/15 03:43:05;;;;;;;;;;;23.20;66.90;;;;;;1554171;74;699;-57
2023/08/15 03:45:07;;;;;;;;;;;23.30;66.90;;;;;;1563351;74;951;-57
2023/08/15 03:47:09;;;;;;;;;;;23.30;66.80;;;;;;1568486;75;1564;-56
2023/08/15 03:49:11;;;;;;;;;;;23.30;66.80;;;;;;1559878;75;1182;-57
2023/08/15 03:51:13;;;;;;;;;;;23.30;66.80;;;;;;1567125;75;1942;-58
2023/08/15 03:53:15;;;;;;;;;;;23.30;66.80;;;;;;1563367;75;685;-58
2023/08/15 03:55:17;;;;;;;;;;;23.30;66.80;;;;;;1559040;74;771;-58
2023/08/15 03:57:19;;;;;;;;;;;23.30;66.60;;;;;;1565348;75;792;-58
2023/08/15 03:59:20;;;;;;;;;;;23.30;66.50;;;;;;1566618;74;1137;-57
2023/08/15 04:01:22;;;;;;;;;;;23.30;66.40;;;;;;1565373;74;1484;-57
2023/08/15 04:03:24;;;;;;;;;;;23.20;66.40;;;;;;1568778;75;730;-59
2023/08/15 04:05:26;;;;;;;;;;;23.30;66.50;;;;;;1562515;75;765;-57
2023/08/15 04:07:28;;;;;;;;;;;23.30;66.50;;;;;;1565638;74;755;-56
2023/08/15 04:09:30;;;;;;;;;;;23.20;66.40;;;;;;1569043;74;1142;-57
2023/08/15 04:11:32;;;;;;;;;;;23.30;66.40;;;;;;1567938;74;1978;-57
2023/08/15 04:13:34;;;;;;;;;;;23.20;66.30;;;;;;1567774;74;667;-57
2023/08/15 04:15:36;;;;;;;;;;;23.30;66.40;;;;;;1569104;75;1563;-58
2023/08/15 04:17:38;;;;;;;;;;;23.30;66.40;;;;;;1569390;74;845;-58
2023/08/15 04:19:40;;;;;;;;;;;23.20;66.20;;;;;;1567799;74;1146;-57
2023/08/15 04:21:42;;;;;;;;;;;23.30;66.20;;;;;;1569992;75;636;-57
2023/08/15 04:23:43;;;;;;;;;;;23.30;66.10;;;;;;1571323;75;762;-57
2023/08/15 04:25:45;;;;;;;;;;;23.30;66.00;;;;;;1560627;74;683;-58
2023/08/15 04:27:47;;;;;;;;;;;23.30;66.00;;;;;;1568857;74;721;-59
2023/08/15 04:29:49;;;;;;;;;;;23.30;66.00;;;;;;1565548;74;1726;-57
2023/08/15 04:31:51;;;;;;;;;;;23.30;66.00;;;;;;1562649;74;1930;-58
2023/08/15 04:33:53;;;;;;;;;;;23.30;66.00;;;;;;1563432;74;693;-57
2023/08/15 04:35:55;;;;;;;;;;;23.20;65.90;;;;;;1566104;74;793;-58
2023/08/15 04:37:57;;;;;;;;;;;23.20;66.00;;;;;;1566884;74;734;-59
2023/08/15 04:39:58;;;;;;;;;;;23.30;66.00;;;;;;1568018;74;1122;-58
2023/08/15 04:42:00;;;;;;;;;;;23.30;65.90;;;;;;1562767;74;733;-58
2023/08/15 04:44:02;;;;;;;;;;;23.30;65.80;;;;;;1570001;75;1351;-57
2023/08/15 04:46:04;;;;;;;;;;;23.30;65.70;;;;;;1567592;74;696;-59
2023/08/15 04:48:07;;;;;;;;;;;23.20;65.70;;;;;;1569919;75;677;-57
2023/08/15 04:50:09;;;;;;;;;;;23.30;65.70;;;;;;1570902;74;1179;-58
2023/08/15 04:52:11;;;;;;;;;;;23.20;65.60;;;;;;1564278;75;1922;-57
2023/08/15 04:54:13;;;;;;;;;;;23.20;65.60;;;;;;1566359;74;679;-56
2023/08/15 04:56:15;;;;;;;;;;;23.30;65.50;;;;;;1559796;74;1535;-57
2023/08/15 04:58:16;;;;;;;;;;;23.20;65.30;;;;;;1566854;74;671;-56
2023/08/15 05:00:19;;;;;;;;;;;23.20;65.50;;;;;;1554365;75;1048;-58
2023/08/15 05:02:21;;;;;;;;;;;23.20;65.70;;;;;;1571006;74;718;-57
2023/08/15 05:04:23;;;;;;;;;;;23.20;65.60;;;;;;1568269;74;755;-58
2023/08/15 05:06:25;;;;;;;;;;;23.30;65.70;;;;;;1555983;74;803;-57
2023/08/15 05:08:27;;;;;;;;;;;23.20;65.40;;;;;;1565173;74;708;-57
2023/08/15 05:10:29;;;;;;;;;;;23.20;65.40;;;;;;1566628;75;1619;-58
2023/08/15 05:12:31;;;;;;;;;;;23.20;65.40;;;;;;1570257;74;1915;-58
2023/08/15 05:14:33;;;;;;;;;;;23.30;65.40;;;;;;1565012;74;702;-59
2023/08/15 05:16:35;;;;;;;;;;;23.30;65.40;;;;;;1516151;76;691;-57
2023/08/15 05:18:36;;;;;;;;;;;23.20;65.30;;;;;;1554088;76;1118;-57
2023/08/15 05:20:39;;;;;;;;;;;23.20;65.20;;;;;;1570854;74;762;-57
2023/08/15 05:22:40;;;;;;;;;;;23.30;65.30;;;;;;1567324;75;759;-59
2023/08/15 05:24:42;;;;;;;;;;;23.30;65.20;;;;;;1565249;74;1549;-57
2023/08/15 05:26:44;;;;;;;;;;;23.30;65.20;;;;;;1566474;74;737;-57
2023/08/15 05:28:46;;;;;;;;;;;23.30;65.30;;;;;;1570500;74;1145;-57
2023/08/15 05:30:48;;;;;;;;;;;23.20;65.20;;;;;;1570660;75;1940;-57
2023/08/15 05:32:50;;;;;;;;;;;23.30;65.40;;;;;;1566346;74;631;-56
2023/08/15 05:34:52;;;;;;;;;;;23.20;65.30;;;;;;1570519;74;741;-57
2023/08/15 05:36:54;;;;;;;;;;;23.30;65.40;;;;;;1566686;74;650;-57
2023/08/15 05:38:56;;;;;;;;;;;23.20;65.30;;;;;;1563738;74;1573;-57
2023/08/15 05:40:58;;;;;;;;;;;23.30;65.40;;;;;;1568453;74;695;-57
2023/08/15 05:42:59;;;;;;;;;;;23.20;65.30;;;;;;1565409;74;680;-58
2023/08/15 05:45:01;;;;;;;;;;;23.20;65.30;;;;;;1526612;76;720;-58
2023/08/15 05:47:03;;;;;;;;;;;23.30;65.40;;;;;;1554023;75;731;-57
2023/08/15 05:49:05;;;;;;;;;;;23.30;65.10;;;;;;1563622;74;1166;-58
2023/08/15 05:51:07;;;;;;;;;;;23.20;65.20;;;;;;1567652;74;1922;-57
2023/08/15 05:53:09;;;;;;;;;;;23.20;65.10;;;;;;1564043;74;1465;-57
2023/08/15 05:55:11;;;;;;;;;;;23.30;65.10;;;;;;1524350;76;773;-58
2023/08/15 05:57:12;;;;;;;;;;;23.30;65.20;;;;;;1547402;75;746;-59
2023/08/15 05:59:14;;;;;;;;;;;23.20;65.10;;;;;;1572211;74;1276;-61
2023/08/15 06:01:16;;;;;;;;;;;23.30;65.30;;;;;;1566729;74;642;-61
2023/08/15 06:03:19;;;;;;;;;;;23.30;64.90;;;;;;1573713;74;668;-61
2023/08/15 06:05:21;;;;;;;;;;;23.20;64.40;;;;;;1569973;74;760;-61
2023/08/15 06:07:23;;;;;;;;;;;23.20;64.50;;;;;;1571198;74;1194;-61
2023/08/15 06:09:27;;;;;;;;;;;23.30;64.10;;;;;;1560159;74;1121;-61
2023/08/15 06:11:29;;;;;;;;;;;23.20;63.60;;;;;;1560913;75;1925;-61
2023/08/15 06:13:30;;;;;;;;;;;23.30;63.50;;;;;;1568886;75;666;-61
2023/08/15 06:15:32;;;;;;;;;;;23.30;63.30;;;;;;1563127;74;747;-61
2023/08/15 06:17:34;;;;;;;;;;;23.40;63.30;;;;;;1569426;74;725;-62
2023/08/15 06:19:36;;;;;;;;;;;23.50;63.40;;;;;;1519380;76;1161;-61
2023/08/15 06:21:41;;;;;;;;;;;23.50;63.40;;;;;;1558663;75;1457;-61
2023/08/15 06:23:41;;;;;;;;;;;23.50;63.20;;;;;;1549961;75;1690;-61
2023/08/15 06:25:43;;;;;;;;;;;23.60;63.00;;;;;;1552265;75;686;-61
2023/08/15 06:27:45;;;;;;;;;;;23.70;62.90;;;;;;1555860;75;661;-61
2023/08/15 06:29:47;;;;;;;;;;;23.70;62.80;;;;;;1550991;75;1141;-62
2023/08/15 06:31:49;;;;;;;;;;;23.70;62.90;;;;;;1562098;75;1955;-62
2023/08/15 06:33:51;;;;;;;;;;;23.80;62.90;;;;;;1558575;75;749;-59
2023/08/15 06:35:53;;;;;;;;;;;23.90;63.00;;;;;;1557048;75;1525;-54
2023/08/15 06:37:55;;;;;;;;;;;23.90;62.90;;;;;;1556914;75;685;-56
2023/08/15 06:39:57;;;;;;;;;;;23.90;62.80;;;;;;1558644;75;1141;-60
2023/08/15 06:41:59;;;;;;;;;;;24.00;62.70;;;;;;1558745;75;770;-57
2023/08/15 06:44:01;;;;;;;;;;;24.00;62.70;;;;;;1562836;75;682;-52
2023/08/15 06:46:03;;;;;;;;;;;24.10;62.70;;;;;;1557419;75;731;-50
2023/08/15 06:48:05;;;;;;;;;;;24.10;62.60;;;;;;1557204;75;754;-58
2023/08/15 06:50:08;;;;;;;;;;;24.10;62.60;;;;;;1556368;75;1617;-53
2023/08/15 06:52:10;;;;;;;;;;;24.10;62.60;;;;;;1556083;75;1901;-50
2023/08/15 06:54:12;;;;;;;;;;;24.10;62.60;;;;;;1556707;75;660;-57
2023/08/15 06:56:14;;;;;;;;;;;24.20;62.50;;;;;;1559086;75;727;-51
2023/08/15 06:58:16;;;;;;;;;;;24.20;62.60;;;;;;1554976;75;667;-52
2023/08/15 07:00:18;;;;;;;;;;;24.10;62.70;;;;;;1561943;75;1129;-51
2023/08/15 07:02:20;;;;;;;;;;;24.10;62.80;;;;;;1558374;75;719;-53
2023/08/15 07:04:22;;;;;;;;;;;24.00;62.70;;;;;;1565046;74;1286;-59
2023/08/15 07:06:24;;;;;;;;;;;24.10;62.90;;;;;;1555767;75;746;-52
2023/08/15 07:08:26;;;;;;;;;;;24.00;62.80;;;;;;1561407;75;880;-57
2023/08/15 07:10:28;;;;;;;;;;;24.00;62.80;;;;;;1557537;75;1118;-54
2023/08/15 07:12:30;;;;;;;;;;;24.10;63.00;;;;;;1551208;75;1935;-55
2023/08/15 07:14:32;;;;;;;;;;;24.00;63.00;;;;;;1557530;76;786;-54
2023/08/15 07:16:34;;;;;;;;;;;24.10;63.10;;;;;;1550466;75;1033;-53
2023/08/15 07:18:36;;;;;;;;;;;24.00;63.00;;;;;;1553808;75;1638;-52
2023/08/15 07:20:38;;;;;;;;;;;24.00;63.00;;;;;;1550958;75;740;-55
2023/08/15 07:22:44;;;;;;;;;;;24.00;63.10;;;;;;1558017;75;753;-56
2023/08/15 07:24:45;;;;;;;;;;;24.00;63.10;;;;;;1550839;75;780;-53
2023/08/15 07:26:47;;;;;;;;;;;24.00;63.10;;;;;;1554426;75;724;-54
2023/08/15 07:28:49;;;;;;;;;;;24.00;63.20;;;;;;1556129;75;1145;-56
2023/08/15 07:30:51;;;;;;;;;;;24.00;63.20;;;;;;1558623;75;1443;-56
2023/08/15 07:32:55;;;;;;;;;;;24.00;63.30;;;;;;1557661;75;1932;-56
2023/08/15 07:34:56;;;;;;;;;;;24.00;63.40;;;;;;1559773;75;692;-54
2023/08/15 07:36:58;;;;;;;;;;;24.00;63.50;;;;;;1558739;75;778;-52
2023/08/15 07:39:00;;;;;;;;;;;24.00;63.60;;;;;;1558970;75;1186;-55
2023/08/15 07:41:03;;;;;;;;;;;24.00;63.70;;;;;;1560414;75;800;-56
2023/08/15 07:43:05;;;;;;;;;;;24.00;63.80;;;;;;1552908;75;673;-53
2023/08/15 07:45:07;;;;;;;;;;;24.00;63.70;;;;;;1557388;75;1551;-56
2023/08/15 07:47:09;;;;;;;;;;;24.00;63.70;;;;;;1556833;75;777;-52
2023/08/15 07:49:11;;;;;;;;;;;24.00;63.70;;;;;;1555095;75;1177;-54
2023/08/15 07:51:13;;;;;;;;;;;24.00;63.70;;;;;;1540921;76;728;-56
2023/08/15 07:53:14;;;;;;;;;;;24.00;63.70;;;;;;1563799;75;1953;-53
2023/08/15 07:55:16;;;;;;;;;;;24.00;63.70;;;;;;1558596;75;731;-54
2023/08/15 07:57:18;;;;;;;;;;;24.00;63.80;;;;;;1556834;75;669;-54
2023/08/15 07:59:20;;;;;;;;;;;24.00;63.80;;;;;;1555717;75;1534;-54
2023/08/15 08:01:22;;;;;;;;;;;24.00;63.80;;;;;;1557251;75;754;-53
2023/08/15 08:03:24;;;;;;;;;;;24.10;63.90;;;;;;1554608;75;811;-55
2023/08/15 08:05:28;;;;;;;;;;;24.00;63.80;;;;;;1562308;75;1533;-53
2023/08/15 08:07:31;;;;;;;;;;;24.10;63.90;;;;;;1557385;75;1081;-57
2023/08/15 08:09:32;;;;;;;;;;;24.00;63.80;;;;;;1555325;75;1390;-54
2023/08/15 08:11:35;;;;;;;;;;;24.10;63.90;;;;;;1557181;75;1407;-57
2023/08/15 08:13:37;;;;;;;;;;;24.10;64.00;;;;;;1554468;75;1938;-54
2023/08/15 08:15:39;;;;;;;;;;;24.10;64.00;;;;;;1550129;75;1510;-57
2023/08/15 08:17:40;;;;;;;;;;;24.10;64.00;;;;;;1551890;75;1330;-57
2023/08/15 08:19:42;;;;;;;;;;;24.10;64.00;;;;;;1548527;75;1526;-56
2023/08/15 08:21:44;;;;;;;;;;;24.20;64.00;;;;;;1556415;75;1485;-56
2023/08/15 08:23:46;;;;;;;;;;;24.10;64.00;;;;;;1559921;75;1406;-55
2023/08/15 08:25:49;;;;;;;;;;;24.20;64.10;;;;;;1556618;75;1277;-56
2023/08/15 08:27:51;;;;;;;;;;;24.10;64.00;;;;;;1553765;75;1579;-57
2023/08/15 08:29:53;;;;;;;;;;;24.10;64.10;;;;;;1555383;75;1508;-53
2023/08/15 08:31:55;;;;;;;;;;;24.20;64.10;;;;;;1558691;75;1938;-56
2023/08/15 08:33:57;;;;;;;;;;;24.10;64.10;;;;;;1556220;75;1029;-53
2023/08/15 08:35:58;;;;;;;;;;;24.10;64.10;;;;;;1558327;75;1544;-53
2023/08/15 08:38:00;;;;;;;;;;;24.20;64.10;;;;;;1560061;75;1472;-56
2023/08/15 08:40:04;;;;;;;;;;;24.10;64.20;;;;;;1564614;75;1602;-52
2023/08/15 08:42:06;;;;;;;;;;;24.10;64.20;;;;;;1559166;75;1302;-56
2023/08/15 08:44:08;;;;;;;;;;;24.10;64.20;;;;;;1554172;75;1407;-56
2023/08/15 08:46:10;;;;;;;;;;;24.20;64.20;;;;;;1558158;75;1514;-54
2023/08/15 08:48:12;;;;;;;;;;;24.10;64.20;;;;;;1557111;75;1485;-54
2023/08/15 08:50:14;;;;;;;;;;;24.20;64.30;;;;;;1557375;75;1121;-53
2023/08/15 08:52:16;;;;;;;;;;;24.20;64.50;;;;;;1552464;75;1917;-54
2023/08/15 08:54:18;;;;;;;;;;;24.20;64.60;;;;;;1557215;75;775;-54
2023/08/15 08:56:24;;;;;;;;;;;24.20;64.70;;;;;;1555566;75;1429;-55
2023/08/15 08:58:26;;;;;;;;;;;24.10;65.00;;;;;;1557522;75;761;-56
2023/08/15 09:00:29;;;;;;;;;;;24.10;65.30;;;;;;1558744;75;1128;-56
2023/08/15 09:02:31;;;;;;;;;;;24.10;65.50;;;;;;1561631;75;745;-57
2023/08/15 09:04:33;;;;;;;;;;;24.20;65.30;;;;;;1557735;75;842;-56
2023/08/15 09:06:35;;;;;;;;;;;24.20;65.80;;;;;;1555158;75;751;-56
2023/08/15 09:08:37;;;;;;;;;;;24.20;65.60;;;;;;1553983;76;1164;-55
2023/08/15 09:10:39;;;;;;;;;;;24.20;66.10;;;;;;1554256;75;1542;-53
2023/08/15 09:12:42;;;;;;;;;;;24.20;66.00;;;;;;1558983;75;1939;-53
2023/08/15 09:14:44;;;;;;;;;;;24.20;66.20;;;;;;1559086;75;662;-54
2023/08/15 09:16:49;;;;;;;;;;;24.20;66.90;;;;;;1553598;75;667;-54
2023/08/15 09:18:51;;;;;;;;;;;24.20;66.50;;;;;;1552369;75;1138;-55
2023/08/15 09:20:53;;;;;;;;;;;24.20;66.70;;;;;;1557435;75;760;-56
2023/08/15 09:22:56;;;;;;;;;;;24.20;67.00;;;;;;1559160;75;680;-54
2023/08/15 09:24:58;;;;;;;;;;;24.20;67.00;;;;;;1561968;75;1341;-53
2023/08/15 09:27:01;;;;;;;;;;;24.20;66.90;;;;;;1563684;74;619;-55
2023/08/15 09:29:03;;;;;;;;;;;24.20;67.20;;;;;;1556829;74;1918;-54
2023/08/15 09:31:05;;;;;;;;;;;24.20;67.60;;;;;;1556256;75;731;-56
2023/08/15 09:33:08;;;;;;;;;;;24.20;67.80;;;;;;1557339;75;1930;-55
2023/08/15 09:35:11;;;;;;;;;;;24.20;67.60;;;;;;1560919;75;662;-53
2023/08/15 09:37:13;;;;;;;;;;;24.20;67.30;;;;;;1554113;75;737;-56
2023/08/15 09:39:15;;;;;;;;;;;24.20;68.10;;;;;;1548202;75;1553;-53
2023/08/15 09:41:17;;;;;;;;;;;24.20;67.80;;;;;;1547187;76;862;-54
2023/08/15 09:43:19;;;;;;;;;;;24.30;68.20;;;;;;1537582;76;776;-56
2023/08/15 09:45:21;;;;;;;;;;;24.30;68.30;;;;;;1555066;75;740;-56
2023/08/15 09:47:23;;;;;;;;;;;24.30;68.10;;;;;;1550206;75;734;-53
2023/08/15 09:49:26;;;;;;;;;;;24.30;67.80;;;;;;1551591;75;1136;-56
2023/08/15 09:51:27;;;;;;;;;;;24.30;68.10;;;;;;1563364;75;1511;-53
2023/08/15 09:53:29;;;;;;;;;;;24.20;67.90;;;;;;1546964;75;1950;-55
2023/08/15 09:55:31;;;;;;;;;;;24.30;67.90;;;;;;1535531;76;835;-53
2023/08/15 09:57:33;;;;;;;;;;;24.30;67.60;;;;;;1545870;75;709;-56
2023/08/15 09:59:36;;;;;;;;;;;24.30;67.50;;;;;;1554751;75;1151;-55
2023/08/15 10:01:38;;;;;;;;;;;24.30;67.30;;;;;;1558716;74;711;-54
2023/08/15 10:03:40;;;;;;;;;;;24.30;67.10;;;;;;1560337;76;776;-54
2023/08/15 10:05:42;;;;;;;;;;;24.30;67.00;;;;;;1561480;75;1328;-54
2023/08/15 10:07:44;;;;;;;;;;;24.20;66.80;;;;;;1558816;75;749;-57
2023/08/15 10:09:46;;;;;;;;;;;24.30;66.70;;;;;;1554737;75;1141;-55
2023/08/15 10:11:48;;;;;;;;;;;24.20;66.50;;;;;;1552615;75;686;-55
2023/08/15 10:13:50;;;;;;;;;;;24.30;66.50;;;;;;1553968;75;1939;-54
2023/08/15 10:15:52;;;;;;;;;;;24.20;66.30;;;;;;1555000;75;810;-53
2023/08/15 10:17:55;;;;;;;;;;;24.20;66.10;;;;;;1557914;75;724;-52
2023/08/15 10:20:00;;;;;;;;;;;24.30;66.10;;;;;;1559762;75;1580;-55
2023/08/15 10:22:03;;;;;;;;;;;24.30;66.00;;;;;;1556015;75;827;-55
2023/08/15 10:24:05;;;;;;;;;;;24.30;65.90;;;;;;1567016;75;730;-55
2023/08/15 10:26:07;;;;;;;;;;;24.30;65.90;;;;;;1557728;75;722;-56
2023/08/15 10:28:10;;;;;;;;;;;24.20;65.70;;;;;;1550585;75;772;-54
2023/08/15 10:30:12;;;;;;;;;;;24.20;65.60;;;;;;1561615;75;1130;-54
2023/08/15 10:32:13;;;;;;;;;;;24.30;65.70;;;;;;1541627;76;1246;-55
2023/08/15 10:34:15;;;;;;;;;;;24.20;65.20;;;;;;1537502;76;1951;-55
2023/08/15 10:36:17;;;;;;;;;;;24.20;65.20;;;;;;1544017;75;1147;-52
2023/08/15 10:38:20;;;;;;;;;;;24.30;65.20;;;;;;1558660;75;749;-52
2023/08/15 10:40:22;;;;;;;;;;;24.30;65.10;;;;;;1559747;75;1080;-53
2023/08/15 10:42:25;;;;;;;;;;;24.20;64.80;;;;;;1558241;76;761;-53
2023/08/15 10:44:27;;;;;;;;;;;24.20;64.80;;;;;;1552034;75;694;-53
2023/08/15 10:46:29;;;;;;;;;;;24.20;64.30;;;;;;1556791;76;1069;-53
2023/08/15 10:48:50;;;;;;;;;;;24.30;64.50;;;;;;1548633;75;1539;-53
2023/08/15 10:50:52;;;;;;;;;;;24.20;64.20;;;;;;1550581;76;1287;-54
2023/08/15 10:53:01;;;;;;;;;;;24.20;64.10;;;;;;1557434;75;1934;-53
2023/08/15 10:55:03;;;;;;;;;;;24.20;63.90;;;;;;1549663;75;1465;-55
2023/08/15 10:57:05;;;;;;;;;;;24.20;64.00;;;;;;1545303;75;1491;-55
2023/08/15 10:59:08;;;;;;;;;;;24.30;63.90;;;;;;1551573;75;1466;-53
2023/08/15 11:01:10;;;;;;;;;;;24.20;63.20;;;;;;1555600;75;1921;-53
2023/08/15 11:03:12;;;;;;;;;;;24.30;63.60;;;;;;1557105;75;1407;-55
2023/08/15 11:05:14;;;;;;;;;;;24.20;63.40;;;;;;1556678;75;1492;-55
2023/08/15 11:07:25;;;;;;;;;;;24.20;62.90;;;;;;1552283;75;667;-54
2023/08/15 11:09:32;;;;;;;;;;;24.30;63.10;;;;;;1552247;75;1125;-57
2023/08/15 11:11:33;;;;;;;;;;;24.20;62.60;;;;;;1558483;75;1465;-57
2023/08/15 11:13:40;;;;;;;;;;;24.20;62.80;;;;;;1557693;75;1915;-56
2023/08/15 11:15:43;;;;;;;;;;;24.20;62.50;;;;;;1552342;75;1574;-55
2023/08/15 11:17:45;;;;;;;;;;;24.20;62.80;;;;;;1529692;76;1532;-54
2023/08/15 11:19:47;;;;;;;;;;;24.20;62.60;;;;;;1554601;76;1141;-55
2023/08/15 11:21:50;;;;;;;;;;;24.20;62.50;;;;;;1560373;75;759;-56
2023/08/15 11:23:54;;;;;;;;;;;24.30;62.70;;;;;;1563434;74;682;-57
2023/08/15 11:26:05;;;;;;;;;;;24.20;62.50;;;;;;1569460;74;1595;-56
2023/08/15 11:28:07;;;;;;;;;;;24.20;62.30;;;;;;1569007;74;763;-54
2023/08/15 11:30:10;;;;;;;;;;;24.20;62.40;;;;;;1569215;75;1479;-57
2023/08/15 11:32:12;;;;;;;;;;;24.20;62.30;;;;;;1570022;74;840;-54
2023/08/15 11:34:13;;;;;;;;;;;24.20;62.10;;;;;;1562562;75;1933;-55
2023/08/15 11:36:15;;;;;;;;;;;24.20;62.10;;;;;;1576577;74;755;-54
2023/08/15 11:38:18;;;;;;;;;;;24.20;61.90;;;;;;1554996;75;776;-55
2023/08/15 11:40:20;;;;;;;;;;;24.20;61.70;;;;;;1552125;75;1120;-54
2023/08/15 11:42:22;;;;;;;;;;;24.20;61.90;;;;;;1553244;75;699;-53
2023/08/15 11:44:24;;;;;;;;;;;24.20;61.80;;;;;;1558542;75;1507;-55
2023/08/15 11:46:27;;;;;;;;;;;24.20;62.00;;;;;;1553133;75;1488;-54
2023/08/15 11:48:30;;;;;;;;;;;24.20;61.90;;;;;;1566113;75;1465;-54
2023/08/15 11:50:32;;;;;;;;;;;24.20;61.90;;;;;;1569783;74;1490;-56
2023/08/15 11:52:36;;;;;;;;;;;24.20;62.00;;;;;;1564698;75;1478;-57
2023/08/15 11:54:38;;;;;;;;;;;24.20;61.60;;;;;;1568196;74;1946;-53
2023/08/15 11:56:53;;;;;;;;;;;24.20;61.20;;;;;;1568482;74;1255;-56
2023/08/15 11:58:56;;;;;;;;;;;24.20;61.50;;;;;;1566216;74;1451;-55
2023/08/15 12:00:59;;;;;;;;;;;24.20;61.30;;;;;;1566510;75;1452;-54
2023/08/15 12:03:01;;;;;;;;;;;24.20;61.20;;;;;;1562595;74;1953;-56
2023/08/15 12:05:09;;;;;;;;;;;24.20;61.10;;;;;;1557941;74;770;-56
2023/08/15 12:07:11;;;;;;;;;;;24.20;61.10;;;;;;1566970;74;787;-56